sensor_id;sensor_type;location;lat;lon;timestamp;noise_LAeq;noise_LA_min;noise_LA_max;noise_LA01;noise_LA95
66454;Laerm;75808;51.436;5.978;2024-03-07T00:00:07;29.98;28.79;33.33;;
66454;Laerm;75808;51.436;5.978;2024-03-07T00:00:24;47.10;28.72;63.78;;
66454;Laerm;75808;51.436;5.978;2024-03-07T00:00:35;29.79;28.67;31.07;;
66454;Laerm;75808;51.436;5.978;2024-03-07T00:00:45;29.66;28.62;30.89;;
66454;Laerm;75808;51.436;5.978;2024-03-07T00:00:55;29.91;28.78;30.93;;
66454;Laerm;75808;51.436;5.978;2024-03-07T00:01:06;29.88;28.67;30.95;;
66454;Laerm;75808;51.436;5.978;2024-03-07T00:01:17;29.70;28.21;30.91;;
66454;Laerm;75808;51.436;5.978;2024-03-07T00:01:27;29.67;28.61;30.75;;
66454;Laerm;75808;51.436;5.978;2024-03-07T00:01:38;29.87;28.40;34.97;;
66454;Laerm;75808;51.436;5.978;2024-03-07T00:01:48;29.77;28.45;30.83;;
66454;Laerm;75808;51.436;5.978;2024-03-07T00:01:58;29.62;28.41;30.62;;
66454;Laerm;75808;51.436;5.978;2024-03-07T00:02:09;29.74;28.44;30.68;;
66454;Laerm;75808;51.436;5.978;2024-03-07T00:02:19;29.84;28.57;30.84;;
66454;Laerm;75808;51.436;5.978;2024-03-07T00:02:30;29.61;28.31;30.74;;
66454;Laerm;75808;51.436;5.978;2024-03-07T00:02:43;29.93;28.84;30.74;;
66454;Laerm;75808;51.436;5.978;2024-03-07T00:02:54;29.63;28.64;31.46;;
66454;Laerm;75808;51.436;5.978;2024-03-07T00:03:04;29.50;27.90;30.52;;
66454;Laerm;75808;51.436;5.978;2024-03-07T00:03:14;29.57;28.62;30.51;;
66454;Laerm;75808;51.436;5.978;2024-03-07T00:03:26;29.60;28.46;30.63;;
66454;Laerm;75808;51.436;5.978;2024-03-07T00:03:37;29.67;28.65;30.49;;
66454;Laerm;75808;51.436;5.978;2024-03-07T00:03:47;29.75;28.43;30.92;;
66454;Laerm;75808;51.436;5.978;2024-03-07T00:03:57;29.66;28.49;30.70;;
66454;Laerm;75808;51.436;5.978;2024-03-07T00:04:07;29.68;28.51;31.01;;
66454;Laerm;75808;51.436;5.978;2024-03-07T00:04:18;29.68;28.66;30.62;;
66454;Laerm;75808;51.436;5.978;2024-03-07T00:04:28;30.13;28.89;31.70;;
66454;Laerm;75808;51.436;5.978;2024-03-07T00:04:39;36.96;29.91;45.15;;
66454;Laerm;75808;51.436;5.978;2024-03-07T00:04:49;49.20;33.84;59.66;;
66454;Laerm;75808;51.436;5.978;2024-03-07T00:04:59;32.08;29.53;35.44;;
66454;Laerm;75808;51.436;5.978;2024-03-07T00:05:10;30.21;28.49;31.67;;
66454;Laerm;75808;51.436;5.978;2024-03-07T00:05:20;29.81;28.65;31.10;;
66454;Laerm;75808;51.436;5.978;2024-03-07T00:05:31;30.06;28.78;31.48;;
66454;Laerm;75808;51.436;5.978;2024-03-07T00:05:42;30.16;29.00;31.62;;
66454;Laerm;75808;51.436;5.978;2024-03-07T00:05:52;30.03;28.86;31.72;;
66454;Laerm;75808;51.436;5.978;2024-03-07T00:06:02;29.69;28.49;31.42;;
66454;Laerm;75808;51.436;5.978;2024-03-07T00:06:13;29.84;28.65;31.16;;
66454;Laerm;75808;51.436;5.978;2024-03-07T00:06:23;29.85;28.59;31.07;;
66454;Laerm;75808;51.436;5.978;2024-03-07T00:06:33;29.70;28.36;33.15;;
66454;Laerm;75808;51.436;5.978;2024-03-07T00:06:44;29.97;28.83;31.19;;
66454;Laerm;75808;51.436;5.978;2024-03-07T00:06:54;31.81;29.15;44.96;;
66454;Laerm;75808;51.436;5.978;2024-03-07T00:07:04;30.33;29.28;31.37;;
66454;Laerm;75808;51.436;5.978;2024-03-07T00:07:15;30.01;28.83;31.08;;
66454;Laerm;75808;51.436;5.978;2024-03-07T00:07:25;30.99;29.04;34.20;;
66454;Laerm;75808;51.436;5.978;2024-03-07T00:07:36;46.24;32.50;59.60;;
66454;Laerm;75808;51.436;5.978;2024-03-07T00:07:46;52.45;34.77;63.52;;
66454;Laerm;75808;51.436;5.978;2024-03-07T00:07:57;32.76;29.39;35.93;;
66454;Laerm;75808;51.436;5.978;2024-03-07T00:08:08;29.96;28.91;31.12;;
66454;Laerm;75808;51.436;5.978;2024-03-07T00:08:20;30.04;28.83;31.18;;
66454;Laerm;75808;51.436;5.978;2024-03-07T00:08:30;30.46;29.19;31.76;;
66454;Laerm;75808;51.436;5.978;2024-03-07T00:08:40;32.84;30.58;36.98;;
66454;Laerm;75808;51.436;5.978;2024-03-07T00:08:51;43.24;36.39;49.00;;
66454;Laerm;75808;51.436;5.978;2024-03-07T00:09:01;39.83;34.87;43.06;;
66454;Laerm;75808;51.436;5.978;2024-03-07T00:09:12;34.88;30.66;40.03;;
66454;Laerm;75808;51.436;5.978;2024-03-07T00:09:22;30.62;29.05;31.96;;
66454;Laerm;75808;51.436;5.978;2024-03-07T00:09:34;30.14;28.65;31.78;;
66454;Laerm;75808;51.436;5.978;2024-03-07T00:09:45;30.09;28.96;31.13;;
66454;Laerm;75808;51.436;5.978;2024-03-07T00:09:56;29.99;28.67;31.20;;
66454;Laerm;75808;51.436;5.978;2024-03-07T00:10:08;36.45;28.84;56.25;;
66454;Laerm;75808;51.436;5.978;2024-03-07T00:10:18;30.15;28.89;31.74;;
66454;Laerm;75808;51.436;5.978;2024-03-07T00:10:28;33.97;29.09;47.11;;
66454;Laerm;75808;51.436;5.978;2024-03-07T00:10:39;30.64;28.96;34.00;;
66454;Laerm;75808;51.436;5.978;2024-03-07T00:10:49;31.16;29.61;33.24;;
66454;Laerm;75808;51.436;5.978;2024-03-07T00:10:59;30.59;29.48;31.78;;
66454;Laerm;75808;51.436;5.978;2024-03-07T00:11:09;30.17;28.90;31.49;;
66454;Laerm;75808;51.436;5.978;2024-03-07T00:11:19;29.96;28.65;31.21;;
66454;Laerm;75808;51.436;5.978;2024-03-07T00:11:30;30.18;29.11;31.25;;
66454;Laerm;75808;51.436;5.978;2024-03-07T00:11:40;32.10;29.79;35.05;;
66454;Laerm;75808;51.436;5.978;2024-03-07T00:11:51;43.39;31.79;56.29;;
66454;Laerm;75808;51.436;5.978;2024-03-07T00:12:04;38.86;32.62;45.44;;
66454;Laerm;75808;51.436;5.978;2024-03-07T00:12:14;31.72;29.02;39.34;;
66454;Laerm;75808;51.436;5.978;2024-03-07T00:12:24;30.09;28.63;31.06;;
66454;Laerm;75808;51.436;5.978;2024-03-07T00:12:37;29.75;28.80;31.03;;
66454;Laerm;75808;51.436;5.978;2024-03-07T00:12:50;29.64;28.75;30.74;;
66454;Laerm;75808;51.436;5.978;2024-03-07T00:13:01;29.55;28.40;31.01;;
66454;Laerm;75808;51.436;5.978;2024-03-07T00:13:13;29.71;28.54;30.99;;
66454;Laerm;75808;51.436;5.978;2024-03-07T00:13:23;29.39;28.32;30.38;;
66454;Laerm;75808;51.436;5.978;2024-03-07T00:13:33;29.38;28.07;30.40;;
66454;Laerm;75808;51.436;5.978;2024-03-07T00:13:43;29.64;28.47;30.86;;
66454;Laerm;75808;51.436;5.978;2024-03-07T00:13:54;29.63;28.75;30.70;;
66454;Laerm;75808;51.436;5.978;2024-03-07T00:14:04;29.61;28.64;30.63;;
66454;Laerm;75808;51.436;5.978;2024-03-07T00:14:16;29.61;28.48;30.90;;
66454;Laerm;75808;51.436;5.978;2024-03-07T00:14:26;29.90;28.65;30.95;;
66454;Laerm;75808;51.436;5.978;2024-03-07T00:14:37;29.91;28.72;30.93;;
66454;Laerm;75808;51.436;5.978;2024-03-07T00:14:47;29.82;28.77;30.92;;
66454;Laerm;75808;51.436;5.978;2024-03-07T00:14:57;29.91;28.39;31.13;;
66454;Laerm;75808;51.436;5.978;2024-03-07T00:15:08;29.87;28.46;31.03;;
66454;Laerm;75808;51.436;5.978;2024-03-07T00:15:19;29.54;28.42;30.47;;
66454;Laerm;75808;51.436;5.978;2024-03-07T00:15:29;29.53;28.53;30.70;;
66454;Laerm;75808;51.436;5.978;2024-03-07T00:15:40;29.55;28.60;30.72;;
66454;Laerm;75808;51.436;5.978;2024-03-07T00:15:51;29.51;28.24;30.42;;
66454;Laerm;75808;51.436;5.978;2024-03-07T00:16:02;29.69;28.56;32.04;;
66454;Laerm;75808;51.436;5.978;2024-03-07T00:16:13;29.67;28.61;30.59;;
66454;Laerm;75808;51.436;5.978;2024-03-07T00:16:23;29.72;28.47;30.83;;
66454;Laerm;75808;51.436;5.978;2024-03-07T00:16:33;29.58;28.48;30.67;;
66454;Laerm;75808;51.436;5.978;2024-03-07T00:16:43;29.35;28.36;30.45;;
66454;Laerm;75808;51.436;5.978;2024-03-07T00:16:54;29.57;28.40;30.56;;
66454;Laerm;75808;51.436;5.978;2024-03-07T00:17:04;29.68;28.64;30.63;;
66454;Laerm;75808;51.436;5.978;2024-03-07T00:17:15;29.74;28.84;30.93;;
66454;Laerm;75808;51.436;5.978;2024-03-07T00:17:25;29.51;28.39;30.55;;
66454;Laerm;75808;51.436;5.978;2024-03-07T00:17:35;29.51;28.56;30.48;;
66454;Laerm;75808;51.436;5.978;2024-03-07T00:17:45;29.56;28.59;30.56;;
66454;Laerm;75808;51.436;5.978;2024-03-07T00:17:55;29.65;28.55;30.90;;
66454;Laerm;75808;51.436;5.978;2024-03-07T00:18:06;29.71;28.94;30.69;;
66454;Laerm;75808;51.436;5.978;2024-03-07T00:18:16;29.83;28.76;30.89;;
66454;Laerm;75808;51.436;5.978;2024-03-07T00:18:26;29.97;28.55;31.35;;
66454;Laerm;75808;51.436;5.978;2024-03-07T00:18:38;29.97;28.95;30.78;;
66454;Laerm;75808;51.436;5.978;2024-03-07T00:18:48;30.01;28.79;31.00;;
66454;Laerm;75808;51.436;5.978;2024-03-07T00:18:58;29.91;28.63;30.96;;
66454;Laerm;75808;51.436;5.978;2024-03-07T00:19:09;29.80;28.68;30.66;;
66454;Laerm;75808;51.436;5.978;2024-03-07T00:19:19;29.85;28.62;30.91;;
66454;Laerm;75808;51.436;5.978;2024-03-07T00:19:29;29.97;28.89;31.05;;
66454;Laerm;75808;51.436;5.978;2024-03-07T00:19:40;29.91;28.63;31.32;;
66454;Laerm;75808;51.436;5.978;2024-03-07T00:19:50;29.58;28.57;30.55;;
66454;Laerm;75808;51.436;5.978;2024-03-07T00:20:01;29.71;28.67;30.70;;
66454;Laerm;75808;51.436;5.978;2024-03-07T00:20:11;29.81;28.71;31.00;;
66454;Laerm;75808;51.436;5.978;2024-03-07T00:20:24;29.78;28.49;31.07;;
66454;Laerm;75808;51.436;5.978;2024-03-07T00:20:34;29.60;28.42;30.77;;
66454;Laerm;75808;51.436;5.978;2024-03-07T00:20:45;29.67;28.59;30.76;;
66454;Laerm;75808;51.436;5.978;2024-03-07T00:20:55;29.87;28.17;31.10;;
66454;Laerm;75808;51.436;5.978;2024-03-07T00:21:05;30.07;29.00;31.17;;
66454;Laerm;75808;51.436;5.978;2024-03-07T00:21:16;29.61;28.27;33.37;;
66454;Laerm;75808;51.436;5.978;2024-03-07T00:21:26;29.64;28.46;40.13;;
66454;Laerm;75808;51.436;5.978;2024-03-07T00:21:36;29.56;28.43;30.61;;
66454;Laerm;75808;51.436;5.978;2024-03-07T00:21:47;29.47;28.36;30.62;;
66454;Laerm;75808;51.436;5.978;2024-03-07T00:21:57;29.56;28.53;30.44;;
66454;Laerm;75808;51.436;5.978;2024-03-07T00:22:07;29.85;28.78;30.82;;
66454;Laerm;75808;51.436;5.978;2024-03-07T00:22:17;32.22;29.32;35.88;;
66454;Laerm;75808;51.436;5.978;2024-03-07T00:22:28;43.81;35.36;51.24;;
66454;Laerm;75808;51.436;5.978;2024-03-07T00:22:40;39.99;33.52;43.41;;
66454;Laerm;75808;51.436;5.978;2024-03-07T00:22:51;32.49;29.69;36.70;;
66454;Laerm;75808;51.436;5.978;2024-03-07T00:23:01;29.82;28.44;30.99;;
66454;Laerm;75808;51.436;5.978;2024-03-07T00:23:13;29.76;28.51;31.00;;
66454;Laerm;75808;51.436;5.978;2024-03-07T00:23:23;29.73;28.67;31.24;;
66454;Laerm;75808;51.436;5.978;2024-03-07T00:23:33;29.67;28.49;30.58;;
66454;Laerm;75808;51.436;5.978;2024-03-07T00:23:43;29.71;28.68;30.79;;
66454;Laerm;75808;51.436;5.978;2024-03-07T00:23:54;29.78;28.67;30.89;;
66454;Laerm;75808;51.436;5.978;2024-03-07T00:24:05;29.97;28.87;31.29;;
66454;Laerm;75808;51.436;5.978;2024-03-07T00:24:15;29.65;28.54;30.92;;
66454;Laerm;75808;51.436;5.978;2024-03-07T00:24:26;29.59;28.22;30.59;;
66454;Laerm;75808;51.436;5.978;2024-03-07T00:24:37;29.46;28.19;30.31;;
66454;Laerm;75808;51.436;5.978;2024-03-07T00:24:48;29.47;28.47;30.82;;
66454;Laerm;75808;51.436;5.978;2024-03-07T00:24:59;29.55;28.41;30.62;;
66454;Laerm;75808;51.436;5.978;2024-03-07T00:25:09;29.66;28.73;34.59;;
66454;Laerm;75808;51.436;5.978;2024-03-07T00:25:21;29.65;28.40;30.72;;
66454;Laerm;75808;51.436;5.978;2024-03-07T00:25:32;29.52;28.51;30.42;;
66454;Laerm;75808;51.436;5.978;2024-03-07T00:25:42;29.53;28.41;30.53;;
66454;Laerm;75808;51.436;5.978;2024-03-07T00:25:52;29.52;28.54;30.50;;
66454;Laerm;75808;51.436;5.978;2024-03-07T00:26:02;29.67;28.72;30.75;;
66454;Laerm;75808;51.436;5.978;2024-03-07T00:26:13;29.79;28.56;30.84;;
66454;Laerm;75808;51.436;5.978;2024-03-07T00:26:23;29.88;28.71;31.79;;
66454;Laerm;75808;51.436;5.978;2024-03-07T00:26:36;29.54;28.37;30.51;;
66454;Laerm;75808;51.436;5.978;2024-03-07T00:26:46;29.52;28.44;30.53;;
66454;Laerm;75808;51.436;5.978;2024-03-07T00:26:56;29.82;28.88;30.99;;
66454;Laerm;75808;51.436;5.978;2024-03-07T00:27:07;29.81;28.57;35.32;;
66454;Laerm;75808;51.436;5.978;2024-03-07T00:27:17;29.71;28.68;30.81;;
66454;Laerm;75808;51.436;5.978;2024-03-07T00:27:27;29.67;28.59;32.24;;
66454;Laerm;75808;51.436;5.978;2024-03-07T00:27:37;29.78;28.84;30.82;;
66454;Laerm;75808;51.436;5.978;2024-03-07T00:27:48;29.63;28.54;30.66;;
66454;Laerm;75808;51.436;5.978;2024-03-07T00:27:58;29.77;28.60;30.83;;
66454;Laerm;75808;51.436;5.978;2024-03-07T00:28:12;30.07;28.52;40.91;;
66454;Laerm;75808;51.436;5.978;2024-03-07T00:28:23;29.53;28.46;30.47;;
66454;Laerm;75808;51.436;5.978;2024-03-07T00:28:33;29.44;28.42;30.35;;
66454;Laerm;75808;51.436;5.978;2024-03-07T00:28:49;29.61;28.27;30.58;;
66454;Laerm;75808;51.436;5.978;2024-03-07T00:28:59;29.49;28.33;30.45;;
66454;Laerm;75808;51.436;5.978;2024-03-07T00:29:12;29.51;28.24;30.60;;
66454;Laerm;75808;51.436;5.978;2024-03-07T00:29:22;29.45;28.49;30.50;;
66454;Laerm;75808;51.436;5.978;2024-03-07T00:29:33;29.47;28.17;30.69;;
66454;Laerm;75808;51.436;5.978;2024-03-07T00:29:45;29.52;28.41;30.55;;
66454;Laerm;75808;51.436;5.978;2024-03-07T00:30:03;29.64;28.59;31.32;;
66454;Laerm;75808;51.436;5.978;2024-03-07T00:30:14;29.63;28.68;30.58;;
66454;Laerm;75808;51.436;5.978;2024-03-07T00:30:28;29.64;28.56;30.86;;
66454;Laerm;75808;51.436;5.978;2024-03-07T00:30:39;29.72;28.78;30.70;;
66454;Laerm;75808;51.436;5.978;2024-03-07T00:30:49;30.05;28.59;43.63;;
66454;Laerm;75808;51.436;5.978;2024-03-07T00:31:00;29.41;28.50;30.36;;
66454;Laerm;75808;51.436;5.978;2024-03-07T00:31:10;49.14;28.76;64.04;;
66454;Laerm;75808;51.436;5.978;2024-03-07T00:31:21;29.52;28.50;31.13;;
66454;Laerm;75808;51.436;5.978;2024-03-07T00:31:31;29.58;28.70;30.56;;
66454;Laerm;75808;51.436;5.978;2024-03-07T00:31:41;29.56;28.68;30.54;;
66454;Laerm;75808;51.436;5.978;2024-03-07T00:31:52;29.46;28.45;30.52;;
66454;Laerm;75808;51.436;5.978;2024-03-07T00:32:02;29.50;28.29;30.41;;
66454;Laerm;75808;51.436;5.978;2024-03-07T00:32:12;29.54;28.21;30.78;;
66454;Laerm;75808;51.436;5.978;2024-03-07T00:32:24;29.58;28.40;32.32;;
66454;Laerm;75808;51.436;5.978;2024-03-07T00:32:34;29.42;28.61;30.46;;
66454;Laerm;75808;51.436;5.978;2024-03-07T00:32:49;29.94;28.70;31.62;;
66454;Laerm;75808;51.436;5.978;2024-03-07T00:32:59;31.17;29.71;33.35;;
66454;Laerm;75808;51.436;5.978;2024-03-07T00:33:09;30.79;29.41;33.47;;
66454;Laerm;75808;51.436;5.978;2024-03-07T00:33:20;30.05;28.54;31.77;;
66454;Laerm;75808;51.436;5.978;2024-03-07T00:33:31;29.70;28.86;30.72;;
66454;Laerm;75808;51.436;5.978;2024-03-07T00:33:42;29.80;28.57;30.93;;
66454;Laerm;75808;51.436;5.978;2024-03-07T00:33:53;29.88;28.80;33.63;;
66454;Laerm;75808;51.436;5.978;2024-03-07T00:34:03;29.69;28.24;32.81;;
66454;Laerm;75808;51.436;5.978;2024-03-07T00:34:13;29.52;28.71;32.18;;
66454;Laerm;75808;51.436;5.978;2024-03-07T00:34:26;30.41;28.69;33.43;;
66454;Laerm;75808;51.436;5.978;2024-03-07T00:34:36;31.75;29.79;34.73;;
66454;Laerm;75808;51.436;5.978;2024-03-07T00:34:47;31.27;29.42;34.72;;
66454;Laerm;75808;51.436;5.978;2024-03-07T00:34:57;30.51;29.20;32.19;;
66454;Laerm;75808;51.436;5.978;2024-03-07T00:35:08;29.94;28.83;31.04;;
66454;Laerm;75808;51.436;5.978;2024-03-07T00:35:21;30.32;29.15;31.49;;
66454;Laerm;75808;51.436;5.978;2024-03-07T00:35:31;30.51;29.44;31.73;;
66454;Laerm;75808;51.436;5.978;2024-03-07T00:35:42;30.14;28.87;31.45;;
66454;Laerm;75808;51.436;5.978;2024-03-07T00:35:54;29.98;28.94;31.97;;
66454;Laerm;75808;51.436;5.978;2024-03-07T00:36:04;29.89;28.94;30.89;;
66454;Laerm;75808;51.436;5.978;2024-03-07T00:36:15;29.58;28.45;30.81;;
66454;Laerm;75808;51.436;5.978;2024-03-07T00:36:25;29.51;28.35;31.74;;
66454;Laerm;75808;51.436;5.978;2024-03-07T00:36:36;29.65;28.61;35.01;;
66454;Laerm;75808;51.436;5.978;2024-03-07T00:36:46;29.61;28.65;30.71;;
66454;Laerm;75808;51.436;5.978;2024-03-07T00:36:56;29.62;28.45;30.70;;
66454;Laerm;75808;51.436;5.978;2024-03-07T00:37:09;29.64;28.62;33.80;;
66454;Laerm;75808;51.436;5.978;2024-03-07T00:37:19;29.59;28.60;32.97;;
66454;Laerm;75808;51.436;5.978;2024-03-07T00:37:29;29.66;28.50;30.74;;
66454;Laerm;75808;51.436;5.978;2024-03-07T00:37:40;29.69;28.69;30.65;;
66454;Laerm;75808;51.436;5.978;2024-03-07T00:37:51;29.64;28.52;30.76;;
66454;Laerm;75808;51.436;5.978;2024-03-07T00:38:01;29.62;28.30;30.61;;
66454;Laerm;75808;51.436;5.978;2024-03-07T00:38:11;29.48;28.33;30.45;;
66454;Laerm;75808;51.436;5.978;2024-03-07T00:38:21;29.83;28.59;31.22;;
66454;Laerm;75808;51.436;5.978;2024-03-07T00:38:33;29.75;28.64;31.17;;
66454;Laerm;75808;51.436;5.978;2024-03-07T00:38:43;29.63;28.59;30.75;;
66454;Laerm;75808;51.436;5.978;2024-03-07T00:38:53;29.59;28.57;32.28;;
66454;Laerm;75808;51.436;5.978;2024-03-07T00:39:04;29.47;28.24;30.48;;
66454;Laerm;75808;51.436;5.978;2024-03-07T00:39:14;29.58;28.67;32.38;;
66454;Laerm;75808;51.436;5.978;2024-03-07T00:39:25;29.74;28.37;32.24;;
66454;Laerm;75808;51.436;5.978;2024-03-07T00:39:35;29.81;28.61;31.13;;
66454;Laerm;75808;51.436;5.978;2024-03-07T00:39:45;29.67;28.69;30.68;;
66454;Laerm;75808;51.436;5.978;2024-03-07T00:39:56;29.88;28.63;30.91;;
66454;Laerm;75808;51.436;5.978;2024-03-07T00:40:06;29.97;28.97;31.59;;
66454;Laerm;75808;51.436;5.978;2024-03-07T00:40:16;30.17;28.55;44.02;;
66454;Laerm;75808;51.436;5.978;2024-03-07T00:40:27;29.79;28.46;31.58;;
66454;Laerm;75808;51.436;5.978;2024-03-07T00:40:37;29.80;28.49;31.02;;
66454;Laerm;75808;51.436;5.978;2024-03-07T00:40:47;29.71;28.52;30.78;;
66454;Laerm;75808;51.436;5.978;2024-03-07T00:40:57;29.61;28.39;31.70;;
66454;Laerm;75808;51.436;5.978;2024-03-07T00:41:09;29.60;28.82;30.65;;
66454;Laerm;75808;51.436;5.978;2024-03-07T00:41:20;29.70;28.74;32.09;;
66454;Laerm;75808;51.436;5.978;2024-03-07T00:41:30;29.71;28.76;31.05;;
66454;Laerm;75808;51.436;5.978;2024-03-07T00:41:41;29.62;28.68;31.09;;
66454;Laerm;75808;51.436;5.978;2024-03-07T00:41:51;43.88;28.80;48.64;;
66454;Laerm;75808;51.436;5.978;2024-03-07T00:42:01;44.51;38.44;51.00;;
66454;Laerm;75808;51.436;5.978;2024-03-07T00:42:12;39.76;36.57;42.39;;
66454;Laerm;75808;51.436;5.978;2024-03-07T00:42:22;40.29;36.69;42.85;;
66454;Laerm;75808;51.436;5.978;2024-03-07T00:42:33;52.32;39.36;63.27;;
66454;Laerm;75808;51.436;5.978;2024-03-07T00:42:43;72.59;64.04;76.42;;
66454;Laerm;75808;51.436;5.978;2024-03-07T00:42:54;73.19;70.49;77.21;;
66454;Laerm;75808;51.436;5.978;2024-03-07T00:43:04;64.82;42.51;73.39;;
66454;Laerm;75808;51.436;5.978;2024-03-07T00:43:15;40.16;34.20;46.64;;
66454;Laerm;75808;51.436;5.978;2024-03-07T00:43:26;34.33;31.64;37.34;;
66454;Laerm;75808;51.436;5.978;2024-03-07T00:43:36;31.82;29.85;34.24;;
66454;Laerm;75808;51.436;5.978;2024-03-07T00:43:46;30.92;29.67;32.61;;
66454;Laerm;75808;51.436;5.978;2024-03-07T00:43:57;30.68;29.17;39.03;;
66454;Laerm;75808;51.436;5.978;2024-03-07T00:44:07;30.35;29.10;31.42;;
66454;Laerm;75808;51.436;5.978;2024-03-07T00:44:19;31.67;29.20;49.82;;
66454;Laerm;75808;51.436;5.978;2024-03-07T00:44:29;30.99;29.65;32.83;;
66454;Laerm;75808;51.436;5.978;2024-03-07T00:44:39;30.91;29.41;33.49;;
66454;Laerm;75808;51.436;5.978;2024-03-07T00:44:49;31.64;29.17;36.99;;
66454;Laerm;75808;51.436;5.978;2024-03-07T00:44:59;31.89;29.88;40.42;;
66454;Laerm;75808;51.436;5.978;2024-03-07T00:45:10;30.90;29.53;32.23;;
66454;Laerm;75808;51.436;5.978;2024-03-07T00:45:20;30.39;29.39;31.77;;
66454;Laerm;75808;51.436;5.978;2024-03-07T00:45:30;30.35;29.19;31.65;;
66454;Laerm;75808;51.436;5.978;2024-03-07T00:45:42;29.99;28.79;31.09;;
66454;Laerm;75808;51.436;5.978;2024-03-07T00:45:52;30.03;28.77;31.36;;
66454;Laerm;75808;51.436;5.978;2024-03-07T00:46:03;30.12;29.07;31.47;;
66454;Laerm;75808;51.436;5.978;2024-03-07T00:46:16;30.35;29.11;31.72;;
66454;Laerm;75808;51.436;5.978;2024-03-07T00:46:26;29.97;28.88;34.14;;
66454;Laerm;75808;51.436;5.978;2024-03-07T00:46:37;29.86;28.61;30.87;;
66454;Laerm;75808;51.436;5.978;2024-03-07T00:46:47;29.89;28.81;32.60;;
66454;Laerm;75808;51.436;5.978;2024-03-07T00:46:57;29.76;28.76;30.66;;
66454;Laerm;75808;51.436;5.978;2024-03-07T00:47:07;29.83;28.67;31.26;;
66454;Laerm;75808;51.436;5.978;2024-03-07T00:47:18;30.02;28.59;32.23;;
66454;Laerm;75808;51.436;5.978;2024-03-07T00:47:28;30.02;28.88;31.50;;
66454;Laerm;75808;51.436;5.978;2024-03-07T00:47:38;29.73;28.59;31.15;;
66454;Laerm;75808;51.436;5.978;2024-03-07T00:47:48;29.78;28.63;30.72;;
66454;Laerm;75808;51.436;5.978;2024-03-07T00:47:58;29.92;28.78;31.30;;
66454;Laerm;75808;51.436;5.978;2024-03-07T00:48:09;30.11;28.98;31.51;;
66454;Laerm;75808;51.436;5.978;2024-03-07T00:48:21;29.99;28.75;38.09;;
66454;Laerm;75808;51.436;5.978;2024-03-07T00:48:31;29.78;28.69;37.02;;
66454;Laerm;75808;51.436;5.978;2024-03-07T00:48:42;29.77;28.89;30.60;;
66454;Laerm;75808;51.436;5.978;2024-03-07T00:48:52;29.60;28.62;30.55;;
66454;Laerm;75808;51.436;5.978;2024-03-07T00:49:02;29.77;28.83;30.70;;
66454;Laerm;75808;51.436;5.978;2024-03-07T00:49:13;29.75;28.43;31.00;;
66454;Laerm;75808;51.436;5.978;2024-03-07T00:49:23;29.74;28.64;30.70;;
66454;Laerm;75808;51.436;5.978;2024-03-07T00:49:33;29.88;28.77;30.91;;
66454;Laerm;75808;51.436;5.978;2024-03-07T00:49:44;29.76;28.86;31.49;;
66454;Laerm;75808;51.436;5.978;2024-03-07T00:49:56;29.82;28.66;30.77;;
66454;Laerm;75808;51.436;5.978;2024-03-07T00:50:06;29.75;28.87;30.80;;
66454;Laerm;75808;51.436;5.978;2024-03-07T00:50:18;29.86;28.79;30.95;;
66454;Laerm;75808;51.436;5.978;2024-03-07T00:50:28;29.77;28.73;31.04;;
66454;Laerm;75808;51.436;5.978;2024-03-07T00:50:40;29.76;28.32;31.02;;
66454;Laerm;75808;51.436;5.978;2024-03-07T00:50:52;29.78;28.72;31.09;;
66454;Laerm;75808;51.436;5.978;2024-03-07T00:51:03;29.62;28.68;30.89;;
66454;Laerm;75808;51.436;5.978;2024-03-07T00:51:14;29.79;28.67;33.84;;
66454;Laerm;75808;51.436;5.978;2024-03-07T00:51:24;29.81;28.76;30.97;;
66454;Laerm;75808;51.436;5.978;2024-03-07T00:51:35;29.85;28.57;30.93;;
66454;Laerm;75808;51.436;5.978;2024-03-07T00:51:45;29.85;28.69;31.65;;
66454;Laerm;75808;51.436;5.978;2024-03-07T00:51:56;29.75;28.41;32.09;;
66454;Laerm;75808;51.436;5.978;2024-03-07T00:52:06;29.75;28.66;30.84;;
66454;Laerm;75808;51.436;5.978;2024-03-07T00:52:16;29.72;28.58;30.72;;
66454;Laerm;75808;51.436;5.978;2024-03-07T00:52:26;29.79;28.62;31.21;;
66454;Laerm;75808;51.436;5.978;2024-03-07T00:52:38;29.86;28.61;31.48;;
66454;Laerm;75808;51.436;5.978;2024-03-07T00:52:48;30.02;28.97;31.26;;
66454;Laerm;75808;51.436;5.978;2024-03-07T00:52:58;29.90;28.84;31.19;;
66454;Laerm;75808;51.436;5.978;2024-03-07T00:53:09;30.00;28.86;31.26;;
66454;Laerm;75808;51.436;5.978;2024-03-07T00:53:20;29.79;28.65;30.75;;
66454;Laerm;75808;51.436;5.978;2024-03-07T00:53:30;29.62;28.77;30.84;;
66454;Laerm;75808;51.436;5.978;2024-03-07T00:53:41;29.46;28.29;30.60;;
66454;Laerm;75808;51.436;5.978;2024-03-07T00:53:51;29.59;28.58;31.02;;
66454;Laerm;75808;51.436;5.978;2024-03-07T00:54:02;30.21;29.09;31.73;;
66454;Laerm;75808;51.436;5.978;2024-03-07T00:54:12;30.00;28.56;30.90;;
66454;Laerm;75808;51.436;5.978;2024-03-07T00:54:23;29.82;28.63;31.34;;
66454;Laerm;75808;51.436;5.978;2024-03-07T00:54:33;29.60;28.16;30.62;;
66454;Laerm;75808;51.436;5.978;2024-03-07T00:54:43;29.52;28.33;30.62;;
66454;Laerm;75808;51.436;5.978;2024-03-07T00:54:54;29.37;28.39;30.25;;
66454;Laerm;75808;51.436;5.978;2024-03-07T00:55:04;29.39;28.38;30.28;;
66454;Laerm;75808;51.436;5.978;2024-03-07T00:55:15;29.54;28.58;31.43;;
66454;Laerm;75808;51.436;5.978;2024-03-07T00:55:25;29.44;28.34;30.39;;
66454;Laerm;75808;51.436;5.978;2024-03-07T00:55:35;29.38;28.41;30.94;;
66454;Laerm;75808;51.436;5.978;2024-03-07T00:55:46;29.77;28.80;30.79;;
66454;Laerm;75808;51.436;5.978;2024-03-07T00:55:56;29.48;28.27;30.40;;
66454;Laerm;75808;51.436;5.978;2024-03-07T00:56:07;29.66;28.51;33.13;;
66454;Laerm;75808;51.436;5.978;2024-03-07T00:56:17;29.79;28.73;35.16;;
66454;Laerm;75808;51.436;5.978;2024-03-07T00:56:27;29.57;28.73;31.27;;
66454;Laerm;75808;51.436;5.978;2024-03-07T00:56:38;29.62;28.39;30.59;;
66454;Laerm;75808;51.436;5.978;2024-03-07T00:56:49;29.58;28.50;30.85;;
66454;Laerm;75808;51.436;5.978;2024-03-07T00:56:59;29.48;28.44;30.45;;
66454;Laerm;75808;51.436;5.978;2024-03-07T00:57:09;29.38;28.24;30.59;;
66454;Laerm;75808;51.436;5.978;2024-03-07T00:57:20;29.52;28.43;30.40;;
66454;Laerm;75808;51.436;5.978;2024-03-07T00:57:30;29.57;28.50;30.52;;
66454;Laerm;75808;51.436;5.978;2024-03-07T00:57:40;29.60;28.47;33.75;;
66454;Laerm;75808;51.436;5.978;2024-03-07T00:57:50;29.61;28.34;30.63;;
66454;Laerm;75808;51.436;5.978;2024-03-07T00:58:00;29.38;27.92;30.44;;
66454;Laerm;75808;51.436;5.978;2024-03-07T00:58:11;29.46;28.18;31.05;;
66454;Laerm;75808;51.436;5.978;2024-03-07T00:58:22;29.63;28.51;30.64;;
66454;Laerm;75808;51.436;5.978;2024-03-07T00:58:33;29.41;28.37;31.12;;
66454;Laerm;75808;51.436;5.978;2024-03-07T00:58:44;29.55;28.36;31.35;;
66454;Laerm;75808;51.436;5.978;2024-03-07T00:58:54;29.54;28.29;30.37;;
66454;Laerm;75808;51.436;5.978;2024-03-07T00:59:06;29.85;28.66;31.11;;
66454;Laerm;75808;51.436;5.978;2024-03-07T00:59:17;29.61;28.61;30.89;;
66454;Laerm;75808;51.436;5.978;2024-03-07T00:59:27;29.62;28.71;30.45;;
66454;Laerm;75808;51.436;5.978;2024-03-07T00:59:37;29.67;28.63;30.52;;
66454;Laerm;75808;51.436;5.978;2024-03-07T00:59:47;29.56;28.41;30.86;;